sensor_id;sensor_type;location;lat;lon;timestamp;temperature;humidity
31819;DHT22;18384;48.860;9.188;2024-01-11T00:01:50;-0.40;91.80
31819;DHT22;18384;48.860;9.188;2024-01-11T00:04:16;-0.40;91.70
31819;DHT22;18384;48.860;9.188;2024-01-11T00:06:43;-0.40;91.70
31819;DHT22;18384;48.860;9.188;2024-01-11T00:09:09;-0.40;91.80
31819;DHT22;18384;48.860;9.188;2024-01-11T00:11:35;-0.50;91.80
31819;DHT22;18384;48.860;9.188;2024-01-11T00:14:01;-0.50;91.80
31819;DHT22;18384;48.860;9.188;2024-01-11T00:16:28;-0.50;91.80
31819;DHT22;18384;48.860;9.188;2024-01-11T00:18:54;-0.50;91.80
31819;DHT22;18384;48.860;9.188;2024-01-11T00:21:20;-0.50;91.90
31819;DHT22;18384;48.860;9.188;2024-01-11T00:23:46;-0.50;92.00
31819;DHT22;18384;48.860;9.188;2024-01-11T00:26:12;-0.50;92.00
31819;DHT22;18384;48.860;9.188;2024-01-11T00:28:39;-0.50;92.00
31819;DHT22;18384;48.860;9.188;2024-01-11T00:31:05;-0.50;92.00
31819;DHT22;18384;48.860;9.188;2024-01-11T00:33:31;-0.50;92.00
31819;DHT22;18384;48.860;9.188;2024-01-11T00:35:58;-0.50;92.00
31819;DHT22;18384;48.860;9.188;2024-01-11T00:38:24;-0.50;92.00
31819;DHT22;18384;48.860;9.188;2024-01-11T00:40:50;-0.50;92.00
31819;DHT22;18384;48.860;9.188;2024-01-11T00:43:16;-0.50;92.00
31819;DHT22;18384;48.860;9.188;2024-01-11T00:45:44;-0.60;92.00
31819;DHT22;18384;48.860;9.188;2024-01-11T00:48:12;-0.60;92.00
31819;DHT22;18384;48.860;9.188;2024-01-11T00:50:38;-0.60;92.10
31819;DHT22;18384;48.860;9.188;2024-01-11T00:53:04;-0.60;92.00
31819;DHT22;18384;48.860;9.188;2024-01-11T00:55:30;-0.60;92.00
31819;DHT22;18384;48.860;9.188;2024-01-11T00:57:56;-0.60;91.90
31819;DHT22;18384;48.860;9.188;2024-01-11T01:00:22;-0.60;92.00
31819;DHT22;18384;48.860;9.188;2024-01-11T01:02:48;-0.60;92.00
31819;DHT22;18384;48.860;9.188;2024-01-11T01:05:14;-0.50;92.10
31819;DHT22;18384;48.860;9.188;2024-01-11T01:07:41;-0.50;92.10
31819;DHT22;18384;48.860;9.188;2024-01-11T01:10:07;-0.50;92.00
31819;DHT22;18384;48.860;9.188;2024-01-11T01:12:34;-0.60;92.00
31819;DHT22;18384;48.860;9.188;2024-01-11T01:15:00;-0.60;92.10
31819;DHT22;18384;48.860;9.188;2024-01-11T01:17:26;-0.60;92.10
31819;DHT22;18384;48.860;9.188;2024-01-11T01:19:52;-0.70;92.10
31819;DHT22;18384;48.860;9.188;2024-01-11T01:22:18;-0.70;92.00
31819;DHT22;18384;48.860;9.188;2024-01-11T01:24:44;-0.60;92.10
31819;DHT22;18384;48.860;9.188;2024-01-11T01:27:10;-0.60;92.00
31819;DHT22;18384;48.860;9.188;2024-01-11T01:29:37;-0.60;92.00
31819;DHT22;18384;48.860;9.188;2024-01-11T01:32:03;-0.70;92.00
31819;DHT22;18384;48.860;9.188;2024-01-11T01:34:29;-0.60;92.10
31819;DHT22;18384;48.860;9.188;2024-01-11T01:36:56;-0.60;92.10
31819;DHT22;18384;48.860;9.188;2024-01-11T01:39:22;-0.70;92.00
31819;DHT22;18384;48.860;9.188;2024-01-11T01:41:48;-0.70;92.00
31819;DHT22;18384;48.860;9.188;2024-01-11T01:44:14;-0.70;92.00
31819;DHT22;18384;48.860;9.188;2024-01-11T01:46:40;-0.70;91.90
31819;DHT22;18384;48.860;9.188;2024-01-11T01:49:06;-0.80;91.90
31819;DHT22;18384;48.860;9.188;2024-01-11T01:51:33;-0.80;92.10
31819;DHT22;18384;48.860;9.188;2024-01-11T01:54:00;-0.80;92.00
31819;DHT22;18384;48.860;9.188;2024-01-11T01:56:27;-0.90;92.10
31819;DHT22;18384;48.860;9.188;2024-01-11T01:58:54;-0.80;92.10
31819;DHT22;18384;48.860;9.188;2024-01-11T02:01:21;-0.80;92.10
31819;DHT22;18384;48.860;9.188;2024-01-11T02:03:52;-0.80;92.20
31819;DHT22;18384;48.860;9.188;2024-01-11T02:06:22;-0.80;92.10
31819;DHT22;18384;48.860;9.188;2024-01-11T02:08:49;-0.80;92.00
31819;DHT22;18384;48.860;9.188;2024-01-11T02:11:20;-0.80;92.10
31819;DHT22;18384;48.860;9.188;2024-01-11T02:13:46;-0.80;91.90
31819;DHT22;18384;48.860;9.188;2024-01-11T02:16:13;-0.80;92.00
31819;DHT22;18384;48.860;9.188;2024-01-11T02:18:39;-0.90;92.00
31819;DHT22;18384;48.860;9.188;2024-01-11T02:21:06;-0.90;91.90
31819;DHT22;18384;48.860;9.188;2024-01-11T02:23:39;-0.90;92.00
31819;DHT22;18384;48.860;9.188;2024-01-11T02:26:12;-0.90;92.00
31819;DHT22;18384;48.860;9.188;2024-01-11T02:28:43;-0.90;92.00
31819;DHT22;18384;48.860;9.188;2024-01-11T02:31:15;-0.90;92.00
31819;DHT22;18384;48.860;9.188;2024-01-11T02:33:42;-0.90;92.10
31819;DHT22;18384;48.860;9.188;2024-01-11T02:36:08;-0.90;92.00
31819;DHT22;18384;48.860;9.188;2024-01-11T02:38:34;-0.80;92.00
31819;DHT22;18384;48.860;9.188;2024-01-11T02:41:00;-0.90;91.90
31819;DHT22;18384;48.860;9.188;2024-01-11T02:43:26;-0.90;91.90
31819;DHT22;18384;48.860;9.188;2024-01-11T02:45:55;-0.90;92.00
31819;DHT22;18384;48.860;9.188;2024-01-11T02:48:28;-1.00;92.00
31819;DHT22;18384;48.860;9.188;2024-01-11T02:50:57;-1.00;92.00
31819;DHT22;18384;48.860;9.188;2024-01-11T02:53:24;-1.00;92.10
31819;DHT22;18384;48.860;9.188;2024-01-11T02:55:50;-1.00;92.10
31819;DHT22;18384;48.860;9.188;2024-01-11T02:58:17;-1.00;92.20
31819;DHT22;18384;48.860;9.188;2024-01-11T03:00:43;-0.30;92.20
31819;DHT22;18384;48.860;9.188;2024-01-11T03:03:09;-1.00;92.20
31819;DHT22;18384;48.860;9.188;2024-01-11T03:05:35;-1.00;92.10
31819;DHT22;18384;48.860;9.188;2024-01-11T03:08:01;-1.00;92.20
31819;DHT22;18384;48.860;9.188;2024-01-11T03:10:27;-1.00;92.10
31819;DHT22;18384;48.860;9.188;2024-01-11T03:12:54;-1.00;92.20
31819;DHT22;18384;48.860;9.188;2024-01-11T03:15:20;-1.00;92.20
31819;DHT22;18384;48.860;9.188;2024-01-11T03:17:46;-1.10;92.10
31819;DHT22;18384;48.860;9.188;2024-01-11T03:20:12;-1.10;92.20
31819;DHT22;18384;48.860;9.188;2024-01-11T03:22:45;-1.10;92.30
31819;DHT22;18384;48.860;9.188;2024-01-11T03:25:12;-1.10;92.30
31819;DHT22;18384;48.860;9.188;2024-01-11T03:27:38;-1.10;92.30
31819;DHT22;18384;48.860;9.188;2024-01-11T03:30:05;-1.10;92.30
31819;DHT22;18384;48.860;9.188;2024-01-11T03:32:32;-1.10;92.30
31819;DHT22;18384;48.860;9.188;2024-01-11T03:34:58;-1.10;92.30
31819;DHT22;18384;48.860;9.188;2024-01-11T03:37:24;-1.20;92.30
31819;DHT22;18384;48.860;9.188;2024-01-11T03:39:50;-1.20;92.40
31819;DHT22;18384;48.860;9.188;2024-01-11T03:42:16;-1.20;92.40
31819;DHT22;18384;48.860;9.188;2024-01-11T03:44:42;-1.20;92.40
31819;DHT22;18384;48.860;9.188;2024-01-11T03:47:09;-1.20;92.40
31819;DHT22;18384;48.860;9.188;2024-01-11T03:49:35;-1.20;92.50
31819;DHT22;18384;48.860;9.188;2024-01-11T03:52:01;-1.20;92.50
31819;DHT22;18384;48.860;9.188;2024-01-11T03:54:27;-1.20;92.50
31819;DHT22;18384;48.860;9.188;2024-01-11T03:56:53;-1.20;92.60
31819;DHT22;18384;48.860;9.188;2024-01-11T03:59:19;-1.20;92.50
31819;DHT22;18384;48.860;9.188;2024-01-11T04:01:45;-1.20;92.40
31819;DHT22;18384;48.860;9.188;2024-01-11T04:04:11;-1.30;92.50
31819;DHT22;18384;48.860;9.188;2024-01-11T04:06:37;-1.20;92.50
31819;DHT22;18384;48.860;9.188;2024-01-11T04:09:03;-1.20;92.50
31819;DHT22;18384;48.860;9.188;2024-01-11T04:11:30;-1.20;92.40
31819;DHT22;18384;48.860;9.188;2024-01-11T04:13:56;-1.20;92.50
31819;DHT22;18384;48.860;9.188;2024-01-11T04:16:22;-1.20;92.50
31819;DHT22;18384;48.860;9.188;2024-01-11T04:18:48;-1.20;92.50
31819;DHT22;18384;48.860;9.188;2024-01-11T04:21:24;-1.10;92.50
31819;DHT22;18384;48.860;9.188;2024-01-11T04:23:51;-1.10;92.40
31819;DHT22;18384;48.860;9.188;2024-01-11T04:26:17;-1.20;92.40
31819;DHT22;18384;48.860;9.188;2024-01-11T04:28:45;-1.30;92.40
31819;DHT22;18384;48.860;9.188;2024-01-11T04:31:12;-1.30;92.50
31819;DHT22;18384;48.860;9.188;2024-01-11T04:33:41;-1.30;92.50
31819;DHT22;18384;48.860;9.188;2024-01-11T04:36:08;-1.30;92.60
31819;DHT22;18384;48.860;9.188;2024-01-11T04:38:34;-1.30;92.50
31819;DHT22;18384;48.860;9.188;2024-01-11T04:41:01;-1.30;92.50
31819;DHT22;18384;48.860;9.188;2024-01-11T04:43:27;-1.30;92.60
31819;DHT22;18384;48.860;9.188;2024-01-11T04:45:53;-1.40;92.60
31819;DHT22;18384;48.860;9.188;2024-01-11T04:48:19;-1.30;92.50
31819;DHT22;18384;48.860;9.188;2024-01-11T04:50:45;-1.30;92.50
31819;DHT22;18384;48.860;9.188;2024-01-11T04:53:12;-1.30;92.80
31819;DHT22;18384;48.860;9.188;2024-01-11T04:55:38;-1.30;92.80
31819;DHT22;18384;48.860;9.188;2024-01-11T04:58:04;-1.30;92.80
31819;DHT22;18384;48.860;9.188;2024-01-11T05:00:30;-1.40;92.90
31819;DHT22;18384;48.860;9.188;2024-01-11T05:02:56;-1.30;92.90
31819;DHT22;18384;48.860;9.188;2024-01-11T05:05:23;-1.30;92.80
31819;DHT22;18384;48.860;9.188;2024-01-11T05:07:49;-1.40;92.90
31819;DHT22;18384;48.860;9.188;2024-01-11T05:10:15;-1.40;93.00
31819;DHT22;18384;48.860;9.188;2024-01-11T05:12:41;-1.40;92.90
31819;DHT22;18384;48.860;9.188;2024-01-11T05:15:07;-1.40;92.70
31819;DHT22;18384;48.860;9.188;2024-01-11T05:17:34;-1.40;92.70
31819;DHT22;18384;48.860;9.188;2024-01-11T05:20:00;-1.40;92.70
31819;DHT22;18384;48.860;9.188;2024-01-11T05:22:26;-1.40;92.80
31819;DHT22;18384;48.860;9.188;2024-01-11T05:24:52;-1.40;92.80
31819;DHT22;18384;48.860;9.188;2024-01-11T05:27:18;-1.40;92.80
31819;DHT22;18384;48.860;9.188;2024-01-11T05:29:44;-1.40;92.70
31819;DHT22;18384;48.860;9.188;2024-01-11T05:32:10;-1.40;92.60
31819;DHT22;18384;48.860;9.188;2024-01-11T05:34:36;-1.40;92.60
31819;DHT22;18384;48.860;9.188;2024-01-11T05:37:02;-1.40;92.80
31819;DHT22;18384;48.860;9.188;2024-01-11T05:39:28;-1.40;92.90
31819;DHT22;18384;48.860;9.188;2024-01-11T05:41:54;-1.40;93.00
31819;DHT22;18384;48.860;9.188;2024-01-11T05:44:21;-1.40;92.90
31819;DHT22;18384;48.860;9.188;2024-01-11T05:46:47;-1.40;93.00
31819;DHT22;18384;48.860;9.188;2024-01-11T05:49:13;-1.50;92.80
31819;DHT22;18384;48.860;9.188;2024-01-11T05:51:39;-1.50;92.90
31819;DHT22;18384;48.860;9.188;2024-01-11T05:54:05;-1.50;92.80
31819;DHT22;18384;48.860;9.188;2024-01-11T05:56:31;-1.50;92.80
31819;DHT22;18384;48.860;9.188;2024-01-11T05:58:57;-1.50;92.90
31819;DHT22;18384;48.860;9.188;2024-01-11T06:01:24;-1.50;92.80
31819;DHT22;18384;48.860;9.188;2024-01-11T06:03:50;-1.50;92.70
31819;DHT22;18384;48.860;9.188;2024-01-11T06:06:16;-1.40;92.70
31819;DHT22;18384;48.860;9.188;2024-01-11T06:08:42;-1.50;92.70
31819;DHT22;18384;48.860;9.188;2024-01-11T06:11:08;-1.60;92.90
31819;DHT22;18384;48.860;9.188;2024-01-11T06:13:35;-1.60;92.80
31819;DHT22;18384;48.860;9.188;2024-01-11T06:16:01;-1.60;92.80
31819;DHT22;18384;48.860;9.188;2024-01-11T06:18:27;-1.60;92.80
31819;DHT22;18384;48.860;9.188;2024-01-11T06:20:53;-1.60;93.10
31819;DHT22;18384;48.860;9.188;2024-01-11T06:23:19;-1.50;93.00
31819;DHT22;18384;48.860;9.188;2024-01-11T06:25:45;-1.50;93.00
31819;DHT22;18384;48.860;9.188;2024-01-11T06:28:11;-1.50;92.90
31819;DHT22;18384;48.860;9.188;2024-01-11T06:30:37;-1.50;92.80
31819;DHT22;18384;48.860;9.188;2024-01-11T06:33:04;-1.60;92.70
31819;DHT22;18384;48.860;9.188;2024-01-11T06:35:30;-1.50;92.90
31819;DHT22;18384;48.860;9.188;2024-01-11T06:37:56;-1.60;92.80
31819;DHT22;18384;48.860;9.188;2024-01-11T06:40:23;-1.50;92.90
31819;DHT22;18384;48.860;9.188;2024-01-11T06:42:49;-1.60;92.80
31819;DHT22;18384;48.860;9.188;2024-01-11T06:45:15;-1.40;92.80
31819;DHT22;18384;48.860;9.188;2024-01-11T06:47:42;-1.50;92.70
31819;DHT22;18384;48.860;9.188;2024-01-11T06:50:08;-1.50;92.80
31819;DHT22;18384;48.860;9.188;2024-01-11T06:52:34;-1.50;92.70
31819;DHT22;18384;48.860;9.188;2024-01-11T06:55:00;-1.50;92.90
31819;DHT22;18384;48.860;9.188;2024-01-11T06:57:26;-1.60;92.80
31819;DHT22;18384;48.860;9.188;2024-01-11T06:59:52;-1.60;92.80
31819;DHT22;18384;48.860;9.188;2024-01-11T07:02:18;-1.60;92.70
31819;DHT22;18384;48.860;9.188;2024-01-11T07:04:44;-1.60;92.60
31819;DHT22;18384;48.860;9.188;2024-01-11T07:07:10;-1.60;92.70
31819;DHT22;18384;48.860;9.188;2024-01-11T07:09:36;-1.60;92.70
31819;DHT22;18384;48.860;9.188;2024-01-11T07:12:03;-1.60;92.70
31819;DHT22;18384;48.860;9.188;2024-01-11T07:14:30;-1.60;92.70
31819;DHT22;18384;48.860;9.188;2024-01-11T07:16:56;-1.60;92.60
31819;DHT22;18384;48.860;9.188;2024-01-11T07:19:23;-1.60;92.80
31819;DHT22;18384;48.860;9.188;2024-01-11T07:21:49;-1.50;92.80
31819;DHT22;18384;48.860;9.188;2024-01-11T07:24:15;-1.50;92.90
31819;DHT22;18384;48.860;9.188;2024-01-11T07:26:41;-1.50;93.00
31819;DHT22;18384;48.860;9.188;2024-01-11T07:29:07;-1.50;92.90
31819;DHT22;18384;48.860;9.188;2024-01-11T07:31:33;-1.50;92.90
31819;DHT22;18384;48.860;9.188;2024-01-11T07:33:59;-1.50;93.00
31819;DHT22;18384;48.860;9.188;2024-01-11T07:36:25;-1.60;93.10
31819;DHT22;18384;48.860;9.188;2024-01-11T07:38:52;-1.70;93.10
31819;DHT22;18384;48.860;9.188;2024-01-11T07:41:18;-1.60;93.10
31819;DHT22;18384;48.860;9.188;2024-01-11T07:43:46;-1.60;93.10
31819;DHT22;18384;48.860;9.188;2024-01-11T07:46:12;-1.50;93.10
31819;DHT22;18384;48.860;9.188;2024-01-11T07:48:38;-1.50;93.00
31819;DHT22;18384;48.860;9.188;2024-01-11T07:51:04;-1.40;92.90
31819;DHT22;18384;48.860;9.188;2024-01-11T07:53:30;-1.50;92.90
31819;DHT22;18384;48.860;9.188;2024-01-11T07:55:57;-1.50;92.90
31819;DHT22;18384;48.860;9.188;2024-01-11T07:58:24;-1.50;92.90
31819;DHT22;18384;48.860;9.188;2024-01-11T08:00:50;-1.50;92.90
31819;DHT22;18384;48.860;9.188;2024-01-11T08:03:17;-1.50;92.90
31819;DHT22;18384;48.860;9.188;2024-01-11T08:05:43;-1.50;92.90
31819;DHT22;18384;48.860;9.188;2024-01-11T08:08:09;-1.50;92.90
31819;DHT22;18384;48.860;9.188;2024-01-11T08:10:35;-1.50;93.10
31819;DHT22;18384;48.860;9.188;2024-01-11T08:13:02;-1.50;93.10
31819;DHT22;18384;48.860;9.188;2024-01-11T08:15:28;-1.40;93.10
31819;DHT22;18384;48.860;9.188;2024-01-11T08:17:54;-1.40;93.00
31819;DHT22;18384;48.860;9.188;2024-01-11T08:20:21;-1.40;93.00
31819;DHT22;18384;48.860;9.188;2024-01-11T08:22:47;-1.40;93.00
31819;DHT22;18384;48.860;9.188;2024-01-11T08:25:13;-1.40;93.10
31819;DHT22;18384;48.860;9.188;2024-01-11T08:27:39;-1.40;93.10
31819;DHT22;18384;48.860;9.188;2024-01-11T08:30:06;-1.30;93.00
31819;DHT22;18384;48.860;9.188;2024-01-11T08:32:33;-1.30;92.90
31819;DHT22;18384;48.860;9.188;2024-01-11T08:35:05;-1.30;92.90
31819;DHT22;18384;48.860;9.188;2024-01-11T08:37:32;-1.30;92.90
31819;DHT22;18384;48.860;9.188;2024-01-11T08:39:58;-1.30;93.20
31819;DHT22;18384;48.860;9.188;2024-01-11T08:42:24;-1.30;93.10
31819;DHT22;18384;48.860;9.188;2024-01-11T08:44:51;-1.20;93.20
31819;DHT22;18384;48.860;9.188;2024-01-11T08:47:17;-1.20;93.20
31819;DHT22;18384;48.860;9.188;2024-01-11T08:49:43;-1.10;93.10
31819;DHT22;18384;48.860;9.188;2024-01-11T08:52:09;-1.00;93.10
31819;DHT22;18384;48.860;9.188;2024-01-11T08:54:36;-0.30;93.30
31819;DHT22;18384;48.860;9.188;2024-01-11T08:57:02;-0.90;93.00
31819;DHT22;18384;48.860;9.188;2024-01-11T08:59:28;-0.90;93.00
31819;DHT22;18384;48.860;9.188;2024-01-11T09:01:54;-0.80;92.90
31819;DHT22;18384;48.860;9.188;2024-01-11T09:04:20;-0.80;92.80
31819;DHT22;18384;48.860;9.188;2024-01-11T09:06:47;-0.70;93.00
31819;DHT22;18384;48.860;9.188;2024-01-11T09:09:13;-0.70;92.70
31819;DHT22;18384;48.860;9.188;2024-01-11T09:11:39;-0.60;92.60
31819;DHT22;18384;48.860;9.188;2024-01-11T09:14:08;-0.70;92.60
31819;DHT22;18384;48.860;9.188;2024-01-11T09:16:38;-0.60;92.60
31819;DHT22;18384;48.860;9.188;2024-01-11T09:19:05;-0.60;92.40
31819;DHT22;18384;48.860;9.188;2024-01-11T09:21:31;-0.60;92.40
31819;DHT22;18384;48.860;9.188;2024-01-11T09:23:57;-0.50;92.30
31819;DHT22;18384;48.860;9.188;2024-01-11T09:26:24;-0.40;92.30
31819;DHT22;18384;48.860;9.188;2024-01-11T09:28:50;-1.50;92.00
31819;DHT22;18384;48.860;9.188;2024-01-11T09:31:16;-0.50;92.30
31819;DHT22;18384;48.860;9.188;2024-01-11T09:33:42;-0.50;92.30
31819;DHT22;18384;48.860;9.188;2024-01-11T09:36:11;-0.40;92.40
31819;DHT22;18384;48.860;9.188;2024-01-11T09:38:38;-0.40;92.30
31819;DHT22;18384;48.860;9.188;2024-01-11T09:41:11;-0.40;92.40
31819;DHT22;18384;48.860;9.188;2024-01-11T09:43:41;-0.30;92.40
31819;DHT22;18384;48.860;9.188;2024-01-11T09:46:07;-0.40;92.50
31819;DHT22;18384;48.860;9.188;2024-01-11T09:48:37;-0.30;92.30
31819;DHT22;18384;48.860;9.188;2024-01-11T09:51:06;-0.20;92.20
31819;DHT22;18384;48.860;9.188;2024-01-11T09:53:36;-0.20;92.10
31819;DHT22;18384;48.860;9.188;2024-01-11T09:56:07;-0.20;92.00
31819;DHT22;18384;48.860;9.188;2024-01-11T09:58:35;-0.10;92.00
31819;DHT22;18384;48.860;9.188;2024-01-11T10:01:09;-0.10;91.90
31819;DHT22;18384;48.860;9.188;2024-01-11T10:03:41;-0.10;91.90
31819;DHT22;18384;48.860;9.188;2024-01-11T10:06:07;0.00;91.90
31819;DHT22;18384;48.860;9.188;2024-01-11T10:08:35;0.00;91.90
31819;DHT22;18384;48.860;9.188;2024-01-11T10:11:02;0.10;91.90
31819;DHT22;18384;48.860;9.188;2024-01-11T10:13:32;0.20;91.70
31819;DHT22;18384;48.860;9.188;2024-01-11T10:16:09;0.20;91.40
31819;DHT22;18384;48.860;9.188;2024-01-11T10:18:36;0.30;91.50
31819;DHT22;18384;48.860;9.188;2024-01-11T10:21:03;0.30;91.30
31819;DHT22;18384;48.860;9.188;2024-01-11T10:23:29;0.40;91.20
31819;DHT22;18384;48.860;9.188;2024-01-11T10:25:58;0.30;91.40
31819;DHT22;18384;48.860;9.188;2024-01-11T10:28:26;0.40;91.50
31819;DHT22;18384;48.860;9.188;2024-01-11T10:30:52;0.40;91.60
31819;DHT22;18384;48.860;9.188;2024-01-11T10:33:19;0.50;91.80
31819;DHT22;18384;48.860;9.188;2024-01-11T10:35:49;0.50;91.70
31819;DHT22;18384;48.860;9.188;2024-01-11T10:38:18;0.60;91.60
31819;DHT22;18384;48.860;9.188;2024-01-11T10:40:44;0.60;91.40
31819;DHT22;18384;48.860;9.188;2024-01-11T10:43:11;0.70;91.30
31819;DHT22;18384;48.860;9.188;2024-01-11T10:45:37;0.70;91.10
31819;DHT22;18384;48.860;9.188;2024-01-11T10:48:13;0.70;91.00
31819;DHT22;18384;48.860;9.188;2024-01-11T10:50:46;0.70;91.00
31819;DHT22;18384;48.860;9.188;2024-01-11T10:53:34;0.70;91.10
31819;DHT22;18384;48.860;9.188;2024-01-11T10:56:06;0.80;91.20
31819;DHT22;18384;48.860;9.188;2024-01-11T10:58:33;0.90;91.00
31819;DHT22;18384;48.860;9.188;2024-01-11T11:01:02;0.90;91.00
31819;DHT22;18384;48.860;9.188;2024-01-11T11:03:31;0.80;90.80
31819;DHT22;18384;48.860;9.188;2024-01-11T11:06:00;0.80;91.10
31819;DHT22;18384;48.860;9.188;2024-01-11T11:08:28;0.90;91.30
31819;DHT22;18384;48.860;9.188;2024-01-11T11:10:58;0.90;91.30
31819;DHT22;18384;48.860;9.188;2024-01-11T11:13:26;1.00;91.40
31819;DHT22;18384;48.860;9.188;2024-01-11T11:15:53;1.00;91.30
31819;DHT22;18384;48.860;9.188;2024-01-11T11:18:20;1.00;91.30
31819;DHT22;18384;48.860;9.188;2024-01-11T11:20:47;1.00;90.90
31819;DHT22;18384;48.860;9.188;2024-01-11T11:23:18;1.00;90.80
31819;DHT22;18384;48.860;9.188;2024-01-11T11:25:48;1.00;90.90
31819;DHT22;18384;48.860;9.188;2024-01-11T11:28:18;1.00;90.80
31819;DHT22;18384;48.860;9.188;2024-01-11T11:30:47;1.10;90.70
31819;DHT22;18384;48.860;9.188;2024-01-11T11:33:24;1.20;90.50
31819;DHT22;18384;48.860;9.188;2024-01-11T11:35:54;1.20;90.70
31819;DHT22;18384;48.860;9.188;2024-01-11T11:38:27;1.20;90.50
31819;DHT22;18384;48.860;9.188;2024-01-11T11:40:56;1.20;90.50
31819;DHT22;18384;48.860;9.188;2024-01-11T11:43:23;1.30;90.50
31819;DHT22;18384;48.860;9.188;2024-01-11T11:45:51;1.30;90.80
31819;DHT22;18384;48.860;9.188;2024-01-11T11:50:10;1.30;90.90
31819;DHT22;18384;48.860;9.188;2024-01-11T11:52:40;1.50;90.70
31819;DHT22;18384;48.860;9.188;2024-01-11T11:55:09;1.50;90.60
31819;DHT22;18384;48.860;9.188;2024-01-11T11:57:35;1.50;90.70
31819;DHT22;18384;48.860;9.188;2024-01-11T12:00:02;1.60;90.60
31819;DHT22;18384;48.860;9.188;2024-01-11T12:02:32;1.60;90.60
31819;DHT22;18384;48.860;9.188;2024-01-11T12:04:58;1.70;90.60
31819;DHT22;18384;48.860;9.188;2024-01-11T12:07:24;1.70;90.40
31819;DHT22;18384;48.860;9.188;2024-01-11T12:09:53;1.70;90.40
31819;DHT22;18384;48.860;9.188;2024-01-11T12:12:19;2.10;90.30
31819;DHT22;18384;48.860;9.188;2024-01-11T12:14:49;1.80;90.40
31819;DHT22;18384;48.860;9.188;2024-01-11T12:17:16;1.80;90.50
31819;DHT22;18384;48.860;9.188;2024-01-11T12:19:42;1.80;90.60
31819;DHT22;18384;48.860;9.188;2024-01-11T12:22:08;1.90;90.80
31819;DHT22;18384;48.860;9.188;2024-01-11T12:24:34;1.90;90.50
31819;DHT22;18384;48.860;9.188;2024-01-11T12:27:01;1.90;90.20
31819;DHT22;18384;48.860;9.188;2024-01-11T12:29:30;2.00;90.20
31819;DHT22;18384;48.860;9.188;2024-01-11T12:31:59;2.00;90.10
31819;DHT22;18384;48.860;9.188;2024-01-11T12:34:26;2.00;90.00
31819;DHT22;18384;48.860;9.188;2024-01-11T12:36:55;2.00;89.70
31819;DHT22;18384;48.860;9.188;2024-01-11T12:39:26;1.90;89.90
31819;DHT22;18384;48.860;9.188;2024-01-11T12:41:54;1.90;89.70
31819;DHT22;18384;48.860;9.188;2024-01-11T12:44:23;1.90;89.70
31819;DHT22;18384;48.860;9.188;2024-01-11T12:46:52;1.90;89.30
31819;DHT22;18384;48.860;9.188;2024-01-11T12:49:18;1.90;89.40
31819;DHT22;18384;48.860;9.188;2024-01-11T12:51:45;1.90;89.30
31819;DHT22;18384;48.860;9.188;2024-01-11T12:54:13;1.90;89.10
31819;DHT22;18384;48.860;9.188;2024-01-11T12:56:45;1.90;89.20
31819;DHT22;18384;48.860;9.188;2024-01-11T12:59:11;2.00;89.50
31819;DHT22;18384;48.860;9.188;2024-01-11T13:01:38;1.90;89.40
31819;DHT22;18384;48.860;9.188;2024-01-11T13:04:10;1.80;89.70
31819;DHT22;18384;48.860;9.188;2024-01-11T13:06:36;1.90;90.00
31819;DHT22;18384;48.860;9.188;2024-01-11T13:09:02;1.80;89.90
31819;DHT22;18384;48.860;9.188;2024-01-11T13:11:29;1.90;90.00
31819;DHT22;18384;48.860;9.188;2024-01-11T13:13:56;1.90;90.00
31819;DHT22;18384;48.860;9.188;2024-01-11T13:16:24;1.90;90.00
31819;DHT22;18384;48.860;9.188;2024-01-11T13:18:51;1.90;89.90
31819;DHT22;18384;48.860;9.188;2024-01-11T13:21:17;1.90;90.00
31819;DHT22;18384;48.860;9.188;2024-01-11T13:23:43;1.80;89.80
31819;DHT22;18384;48.860;9.188;2024-01-11T13:26:09;1.90;90.00
31819;DHT22;18384;48.860;9.188;2024-01-11T13:28:36;1.90;90.10
31819;DHT22;18384;48.860;9.188;2024-01-11T13:31:02;1.90;90.20
31819;DHT22;18384;48.860;9.188;2024-01-11T13:33:28;1.80;90.20
31819;DHT22;18384;48.860;9.188;2024-01-11T13:35:54;1.80;90.30
31819;DHT22;18384;48.860;9.188;2024-01-11T13:38:20;1.80;90.30
31819;DHT22;18384;48.860;9.188;2024-01-11T13:40:46;1.80;90.40
31819;DHT22;18384;48.860;9.188;2024-01-11T13:43:13;1.70;90.50
31819;DHT22;18384;48.860;9.188;2024-01-11T13:45:39;1.80;90.50
31819;DHT22;18384;48.860;9.188;2024-01-11T13:48:06;1.90;90.30
31819;DHT22;18384;48.860;9.188;2024-01-11T13:50:32;1.80;90.40
31819;DHT22;18384;48.860;9.188;2024-01-11T13:52:59;1.80;90.50
31819;DHT22;18384;48.860;9.188;2024-01-11T13:55:26;1.80;90.50
31819;DHT22;18384;48.860;9.188;2024-01-11T13:57:52;1.80;90.60
31819;DHT22;18384;48.860;9.188;2024-01-11T14:00:19;2.30;90.60
31819;DHT22;18384;48.860;9.188;2024-01-11T14:02:46;1.80;90.40
31819;DHT22;18384;48.860;9.188;2024-01-11T14:05:13;1.80;90.50
31819;DHT22;18384;48.860;9.188;2024-01-11T14:07:41;1.70;90.40
31819;DHT22;18384;48.860;9.188;2024-01-11T14:10:08;1.70;90.40
31819;DHT22;18384;48.860;9.188;2024-01-11T14:12:37;1.80;90.50
31819;DHT22;18384;48.860;9.188;2024-01-11T14:15:05;1.80;90.50
31819;DHT22;18384;48.860;9.188;2024-01-11T14:17:33;1.80;90.60
31819;DHT22;18384;48.860;9.188;2024-01-11T14:20:00;1.80;90.70
31819;DHT22;18384;48.860;9.188;2024-01-11T14:22:27;1.70;90.70
31819;DHT22;18384;48.860;9.188;2024-01-11T14:24:53;1.70;90.70
31819;DHT22;18384;48.860;9.188;2024-01-11T14:27:22;1.70;90.70
31819;DHT22;18384;48.860;9.188;2024-01-11T14:29:49;1.70;90.70
31819;DHT22;18384;48.860;9.188;2024-01-11T14:32:15;1.60;90.70
31819;DHT22;18384;48.860;9.188;2024-01-11T14:34:44;1.60;90.90
31819;DHT22;18384;48.860;9.188;2024-01-11T14:37:12;1.60;90.70
31819;DHT22;18384;48.860;9.188;2024-01-11T14:39:38;1.50;90.70
31819;DHT22;18384;48.860;9.188;2024-01-11T14:42:04;1.50;90.80
31819;DHT22;18384;48.860;9.188;2024-01-11T14:44:31;1.60;90.80
31819;DHT22;18384;48.860;9.188;2024-01-11T14:46:57;1.50;90.80
31819;DHT22;18384;48.860;9.188;2024-01-11T14:49:23;1.50;90.80
31819;DHT22;18384;48.860;9.188;2024-01-11T14:51:50;1.60;90.80
31819;DHT22;18384;48.860;9.188;2024-01-11T14:54:17;1.60;90.70
31819;DHT22;18384;48.860;9.188;2024-01-11T14:56:46;1.60;90.80
31819;DHT22;18384;48.860;9.188;2024-01-11T14:59:13;1.60;90.80
31819;DHT22;18384;48.860;9.188;2024-01-11T15:01:39;1.60;90.80
31819;DHT22;18384;48.860;9.188;2024-01-11T15:04:05;1.60;90.90
31819;DHT22;18384;48.860;9.188;2024-01-11T15:06:31;1.50;90.90
31819;DHT22;18384;48.860;9.188;2024-01-11T15:08:58;1.50;90.90
31819;DHT22;18384;48.860;9.188;2024-01-11T15:11:24;1.50;90.90
31819;DHT22;18384;48.860;9.188;2024-01-11T15:13:51;1.50;90.90
31819;DHT22;18384;48.860;9.188;2024-01-11T15:16:17;1.50;90.80
31819;DHT22;18384;48.860;9.188;2024-01-11T15:18:43;1.50;90.90
31819;DHT22;18384;48.860;9.188;2024-01-11T15:21:11;1.50;90.70
31819;DHT22;18384;48.860;9.188;2024-01-11T15:23:37;1.50;90.80
31819;DHT22;18384;48.860;9.188;2024-01-11T15:26:03;1.40;90.80
31819;DHT22;18384;48.860;9.188;2024-01-11T15:28:29;1.40;90.90
31819;DHT22;18384;48.860;9.188;2024-01-11T15:30:55;1.40;90.90
31819;DHT22;18384;48.860;9.188;2024-01-11T15:33:22;1.40;91.10
31819;DHT22;18384;48.860;9.188;2024-01-11T15:35:48;1.30;91.20